Lawrence, Indiana
Current Conditions -  °F | °C
As of 6:35 PM on Saturday 25 Oct 2014 (Local Time) from KMQJ Reporting Station
Clear Clear  
Wind Chill: 70°   Ceiling: Unl
Heat Index: 70°   Visibility: 10mi
Dew Point: 28°   Wind: 9mph
Humidity: 21%   Direction: 280°W
Pressure: 29.93"   Gusts: NA
Location:  39.84°N, 86.02°W
Report Text: KMQJ 252235Z AUTO 28008KT 10SM CLR 21/M02 A2993 RMK AO1
Loading
Personal Weather Stations






























Interactive Weather Map
Tropical Storm Tracking
New forecast layout! Learn more

10-Day Weather Forecast

Advertisements
Track Severe Weather on mobile